sensor_id;sensor_type;location;lat;lon;timestamp;pressure;altitude;pressure_sealevel;temperature;humidity
10093;BME280;5085;48.092;11.484;2022-12-18T00:00:47;96152.22;;;-4.12;100.00
10093;BME280;5085;48.092;11.484;2022-12-18T00:03:14;96154.34;;;-4.15;100.00
10093;BME280;5085;48.092;11.484;2022-12-18T00:05:50;96150.88;;;-4.16;100.00
10093;BME280;5085;48.092;11.484;2022-12-18T00:08:17;96141.19;;;-4.15;100.00
10093;BME280;5085;48.092;11.484;2022-12-18T00:10:43;96136.06;;;-4.17;100.00
10093;BME280;5085;48.092;11.484;2022-12-18T00:13:10;96133.78;;;-4.20;100.00
10093;BME280;5085;48.092;11.484;2022-12-18T00:15:38;96138.34;;;-4.22;100.00
10093;BME280;5085;48.092;11.484;2022-12-18T00:18:04;96139.84;;;-4.19;100.00
10093;BME280;5085;48.092;11.484;2022-12-18T00:20:31;96140.69;;;-4.19;100.00
10093;BME280;5085;48.092;11.484;2022-12-18T00:23:00;96144.28;;;-4.20;100.00
10093;BME280;5085;48.092;11.484;2022-12-18T00:25:27;96149.84;;;-4.23;100.00
10093;BME280;5085;48.092;11.484;2022-12-18T00:27:53;96148.06;;;-4.22;100.00
10093;BME280;5085;48.092;11.484;2022-12-18T00:30:19;96148.72;;;-4.20;100.00
10093;BME280;5085;48.092;11.484;2022-12-18T00:32:45;96161.03;;;-4.21;100.00
10093;BME280;5085;48.092;11.484;2022-12-18T00:35:11;96165.31;;;-4.20;100.00
10093;BME280;5085;48.092;11.484;2022-12-18T00:37:37;96163.53;;;-4.19;100.00
10093;BME280;5085;48.092;11.484;2022-12-18T00:40:04;96165.16;;;-4.18;100.00
10093;BME280;5085;48.092;11.484;2022-12-18T00:42:30;96162.22;;;-4.15;100.00
10093;BME280;5085;48.092;11.484;2022-12-18T00:45:15;96160.25;;;-4.13;100.00
10093;BME280;5085;48.092;11.484;2022-12-18T00:47:41;96166.31;;;-4.13;100.00
10093;BME280;5085;48.092;11.484;2022-12-18T00:50:07;96168.31;;;-4.15;100.00
10093;BME280;5085;48.092;11.484;2022-12-18T00:52:33;96168.13;;;-4.13;100.00
10093;BME280;5085;48.092;11.484;2022-12-18T00:54:59;96168.66;;;-4.10;100.00
10093;BME280;5085;48.092;11.484;2022-12-18T00:57:25;96171.75;;;-4.14;100.00
10093;BME280;5085;48.092;11.484;2022-12-18T00:59:51;96174.38;;;-4.14;100.00
10093;BME280;5085;48.092;11.484;2022-12-18T01:02:18;96177.00;;;-4.14;100.00
10093;BME280;5085;48.092;11.484;2022-12-18T01:04:44;96180.75;;;-4.17;100.00
10093;BME280;5085;48.092;11.484;2022-12-18T01:07:10;96191.75;;;-4.21;100.00
10093;BME280;5085;48.092;11.484;2022-12-18T01:09:36;96199.28;;;-4.27;100.00
10093;BME280;5085;48.092;11.484;2022-12-18T01:12:02;96206.34;;;-4.27;100.00
10093;BME280;5085;48.092;11.484;2022-12-18T01:14:29;96206.88;;;-4.23;100.00
10093;BME280;5085;48.092;11.484;2022-12-18T01:16:55;96202.78;;;-4.18;100.00
10093;BME280;5085;48.092;11.484;2022-12-18T01:19:21;96211.03;;;-4.13;100.00
10093;BME280;5085;48.092;11.484;2022-12-18T01:21:47;96225.00;;;-4.12;100.00
10093;BME280;5085;48.092;11.484;2022-12-18T01:24:13;96217.78;;;-4.10;100.00
10093;BME280;5085;48.092;11.484;2022-12-18T01:26:39;96217.78;;;-4.10;100.00
10093;BME280;5085;48.092;11.484;2022-12-18T01:29:05;96211.38;;;-4.16;100.00
10093;BME280;5085;48.092;11.484;2022-12-18T01:31:33;96218.72;;;-4.19;100.00
10093;BME280;5085;48.092;11.484;2022-12-18T01:34:02;96220.84;;;-4.23;100.00
10093;BME280;5085;48.092;11.484;2022-12-18T01:36:34;96224.75;;;-4.27;100.00
10093;BME280;5085;48.092;11.484;2022-12-18T01:39:03;96226.69;;;-4.29;100.00
10093;BME280;5085;48.092;11.484;2022-12-18T01:41:31;96234.59;;;-4.29;100.00
10093;BME280;5085;48.092;11.484;2022-12-18T01:45:01;96232.94;;;-4.30;100.00
10093;BME280;5085;48.092;11.484;2022-12-18T01:47:33;96234.75;;;-4.31;100.00
10093;BME280;5085;48.092;11.484;2022-12-18T01:50:22;96234.59;;;-4.29;100.00
10093;BME280;5085;48.092;11.484;2022-12-18T01:55:23;96241.00;;;-4.32;100.00
10093;BME280;5085;48.092;11.484;2022-12-18T01:57:54;96243.63;;;-4.32;100.00
10093;BME280;5085;48.092;11.484;2022-12-18T02:00:22;96237.03;;;-4.36;100.00
10093;BME280;5085;48.092;11.484;2022-12-18T02:02:50;96231.94;;;-4.37;100.00
10093;BME280;5085;48.092;11.484;2022-12-18T02:08:34;96227.81;;;-4.40;100.00
10093;BME280;5085;48.092;11.484;2022-12-18T02:11:30;96226.97;;;-4.40;100.00
10093;BME280;5085;48.092;11.484;2022-12-18T02:14:20;96225.00;;;-4.38;100.00
10093;BME280;5085;48.092;11.484;2022-12-18T02:27:46;96223.25;;;-4.56;100.00
10093;BME280;5085;48.092;11.484;2022-12-18T02:30:16;96221.91;;;-4.60;100.00
10093;BME280;5085;48.092;11.484;2022-12-18T02:32:50;96224.88;;;-4.63;100.00
10093;BME280;5085;48.092;11.484;2022-12-18T02:35:30;96221.09;;;-4.60;100.00
10093;BME280;5085;48.092;11.484;2022-12-18T02:38:02;96226.50;;;-4.62;100.00
10093;BME280;5085;48.092;11.484;2022-12-18T02:41:10;96229.97;;;-4.61;100.00
10093;BME280;5085;48.092;11.484;2022-12-18T02:43:38;96225.97;;;-4.65;100.00
10093;BME280;5085;48.092;11.484;2022-12-18T02:46:32;96223.19;;;-4.64;100.00
10093;BME280;5085;48.092;11.484;2022-12-18T02:52:03;96225.81;;;-4.64;100.00
10093;BME280;5085;48.092;11.484;2022-12-18T02:57:55;96220.56;;;-4.64;100.00
10093;BME280;5085;48.092;11.484;2022-12-18T03:05:51;96228.69;;;-4.57;100.00
10093;BME280;5085;48.092;11.484;2022-12-18T03:08:23;96228.69;;;-4.57;100.00
10093;BME280;5085;48.092;11.484;2022-12-18T03:10:55;96219.66;;;-4.55;100.00
10093;BME280;5085;48.092;11.484;2022-12-18T03:13:47;96210.28;;;-4.57;100.00
10093;BME280;5085;48.092;11.484;2022-12-18T03:16:19;96210.88;;;-4.63;100.00
10093;BME280;5085;48.092;11.484;2022-12-18T03:18:55;96213.50;;;-4.63;100.00
10093;BME280;5085;48.092;11.484;2022-12-18T03:21:29;96198.72;;;-4.64;100.00
10093;BME280;5085;48.092;11.484;2022-12-18T03:23:58;96215.84;;;-4.60;100.00
10093;BME280;5085;48.092;11.484;2022-12-18T03:26:27;96214.56;;;-4.56;100.00
10093;BME280;5085;48.092;11.484;2022-12-18T03:29:07;96216.19;;;-4.55;100.00
10093;BME280;5085;48.092;11.484;2022-12-18T03:31:37;96219.66;;;-4.55;100.00
10093;BME280;5085;48.092;11.484;2022-12-18T03:34:09;96224.91;;;-4.55;100.00
10093;BME280;5085;48.092;11.484;2022-12-18T03:36:42;96219.81;;;-4.56;100.00
10093;BME280;5085;48.092;11.484;2022-12-18T03:39:08;96226.03;;;-4.57;100.00
10093;BME280;5085;48.092;11.484;2022-12-18T03:41:45;96226.88;;;-4.57;100.00
10093;BME280;5085;48.092;11.484;2022-12-18T03:52:48;96235.38;;;-4.63;100.00
10093;BME280;5085;48.092;11.484;2022-12-18T03:55:17;96227.94;;;-4.67;100.00
10093;BME280;5085;48.092;11.484;2022-12-18T03:57:47;96228.63;;;-4.65;100.00
10093;BME280;5085;48.092;11.484;2022-12-18T04:00:16;96222.53;;;-4.66;100.00
10093;BME280;5085;48.092;11.484;2022-12-18T04:02:55;96221.38;;;-4.63;100.00
10093;BME280;5085;48.092;11.484;2022-12-18T04:05:31;96223.06;;;-4.62;100.00
10093;BME280;5085;48.092;11.484;2022-12-18T04:08:00;96223.53;;;-4.67;100.00
10093;BME280;5085;48.092;11.484;2022-12-18T04:10:27;96231.06;;;-4.64;100.00
10093;BME280;5085;48.092;11.484;2022-12-18T04:12:57;96229.44;;;-4.65;100.00
10093;BME280;5085;48.092;11.484;2022-12-18T04:15:24;96231.06;;;-4.64;100.00
10093;BME280;5085;48.092;11.484;2022-12-18T04:17:50;96235.50;;;-4.64;100.00
10093;BME280;5085;48.092;11.484;2022-12-18T04:20:20;96243.25;;;-4.63;100.00
10093;BME280;5085;48.092;11.484;2022-12-18T04:22:47;96243.75;;;-4.59;100.00
10093;BME280;5085;48.092;11.484;2022-12-18T04:25:13;96245.09;;;-4.55;100.00
10093;BME280;5085;48.092;11.484;2022-12-18T04:27:49;96228.38;;;-4.54;100.00
10093;BME280;5085;48.092;11.484;2022-12-18T04:30:15;96234.44;;;-4.54;100.00
10093;BME280;5085;48.092;11.484;2022-12-18T04:32:41;96230.69;;;-4.51;100.00
10093;BME280;5085;48.092;11.484;2022-12-18T04:35:08;96233.69;;;-4.46;100.00
10093;BME280;5085;48.092;11.484;2022-12-18T04:37:36;96239.44;;;-4.42;100.00
10093;BME280;5085;48.092;11.484;2022-12-18T04:40:03;96238.47;;;-4.41;100.00
10093;BME280;5085;48.092;11.484;2022-12-18T04:42:39;96235.84;;;-4.41;100.00
10093;BME280;5085;48.092;11.484;2022-12-18T04:45:06;96237.50;;;-4.40;100.00
10093;BME280;5085;48.092;11.484;2022-12-18T04:47:32;96238.97;;;-4.38;100.00
10093;BME280;5085;48.092;11.484;2022-12-18T04:49:58;96242.47;;;-4.37;100.00
10093;BME280;5085;48.092;11.484;2022-12-18T04:52:24;96248.00;;;-4.40;100.00
10093;BME280;5085;48.092;11.484;2022-12-18T04:54:50;96250.78;;;-4.42;100.00
10093;BME280;5085;48.092;11.484;2022-12-18T04:57:16;96261.28;;;-4.42;100.00
10093;BME280;5085;48.092;11.484;2022-12-18T04:59:44;96261.16;;;-4.40;100.00
10093;BME280;5085;48.092;11.484;2022-12-18T05:02:10;96267.75;;;-4.36;100.00
10093;BME280;5085;48.092;11.484;2022-12-18T05:04:36;96276.47;;;-4.36;100.00
10093;BME280;5085;48.092;11.484;2022-12-18T05:07:02;96267.75;;;-4.36;100.00
10093;BME280;5085;48.092;11.484;2022-12-18T05:09:28;96254.59;;;-4.36;100.00
10093;BME280;5085;48.092;11.484;2022-12-18T05:11:54;96258.59;;;-4.32;100.00
10093;BME280;5085;48.092;11.484;2022-12-18T05:14:20;96268.09;;;-4.31;100.00
10093;BME280;5085;48.092;11.484;2022-12-18T05:16:46;96274.03;;;-4.29;100.00
10093;BME280;5085;48.092;11.484;2022-12-18T05:19:12;96267.00;;;-4.29;100.00
10093;BME280;5085;48.092;11.484;2022-12-18T05:21:38;96266.00;;;-4.28;100.00
10093;BME280;5085;48.092;11.484;2022-12-18T05:24:04;96262.56;;;-4.28;100.00
10093;BME280;5085;48.092;11.484;2022-12-18T05:26:30;96272.38;;;-4.30;100.00
10093;BME280;5085;48.092;11.484;2022-12-18T05:28:57;96268.41;;;-4.34;100.00
10093;BME280;5085;48.092;11.484;2022-12-18T05:31:23;96280.06;;;-4.37;100.00
10093;BME280;5085;48.092;11.484;2022-12-18T05:33:49;96273.31;;;-4.39;100.00
10093;BME280;5085;48.092;11.484;2022-12-18T05:36:15;96274.94;;;-4.38;100.00
10093;BME280;5085;48.092;11.484;2022-12-18T05:38:41;96275.41;;;-4.43;100.00
10093;BME280;5085;48.092;11.484;2022-12-18T05:41:07;96281.00;;;-4.46;100.00
10093;BME280;5085;48.092;11.484;2022-12-18T05:43:35;96288.34;;;-4.49;100.00
10093;BME280;5085;48.092;11.484;2022-12-18T05:46:12;96295.53;;;-4.52;100.00
10093;BME280;5085;48.092;11.484;2022-12-18T05:48:38;96286.69;;;-4.50;100.00
10093;BME280;5085;48.092;11.484;2022-12-18T05:51:07;96296.25;;;-4.49;100.00
10093;BME280;5085;48.092;11.484;2022-12-18T05:53:34;96290.00;;;-4.48;100.00
10093;BME280;5085;48.092;11.484;2022-12-18T05:56:02;96293.09;;;-4.53;100.00
10093;BME280;5085;48.092;11.484;2022-12-18T05:58:29;96296.00;;;-4.56;100.00
10093;BME280;5085;48.092;11.484;2022-12-18T06:00:56;96301.56;;;-4.59;100.00
10093;BME280;5085;48.092;11.484;2022-12-18T06:03:22;96297.16;;;-4.59;100.00
10093;BME280;5085;48.092;11.484;2022-12-18T06:05:48;96294.13;;;-4.64;100.00
10093;BME280;5085;48.092;11.484;2022-12-18T06:08:14;96298.72;;;-4.66;100.00
10093;BME280;5085;48.092;11.484;2022-12-18T06:10:41;96301.34;;;-4.66;100.00
10093;BME280;5085;48.092;11.484;2022-12-18T06:13:07;96296.09;;;-4.66;100.00
10093;BME280;5085;48.092;11.484;2022-12-18T06:15:36;96300.00;;;-4.70;100.00
10093;BME280;5085;48.092;11.484;2022-12-18T06:18:05;96302.63;;;-4.70;100.00
10093;BME280;5085;48.092;11.484;2022-12-18T06:20:32;96292.28;;;-4.71;100.00
10093;BME280;5085;48.092;11.484;2022-12-18T06:23:06;96290.94;;;-4.75;100.00
10093;BME280;5085;48.092;11.484;2022-12-18T06:25:32;96305.19;;;-4.78;100.00
10093;BME280;5085;48.092;11.484;2022-12-18T06:27:59;96311.25;;;-4.78;100.00
10093;BME280;5085;48.092;11.484;2022-12-18T06:30:25;96307.81;;;-4.78;100.00
10093;BME280;5085;48.092;11.484;2022-12-18T06:32:51;96307.66;;;-4.77;100.00
10093;BME280;5085;48.092;11.484;2022-12-18T06:35:17;96303.75;;;-4.72;100.00
10093;BME280;5085;48.092;11.484;2022-12-18T06:37:43;96315.47;;;-4.67;100.00
10093;BME280;5085;48.092;11.484;2022-12-18T06:40:09;96318.75;;;-4.65;100.00
10093;BME280;5085;48.092;11.484;2022-12-18T06:42:39;96324.72;;;-4.63;100.00
10093;BME280;5085;48.092;11.484;2022-12-18T06:45:05;96322.91;;;-4.62;100.00
10093;BME280;5085;48.092;11.484;2022-12-18T06:47:32;96330.25;;;-4.66;100.00
10093;BME280;5085;48.092;11.484;2022-12-18T06:49:58;96336.16;;;-4.64;100.00
10093;BME280;5085;48.092;11.484;2022-12-18T06:52:24;96336.16;;;-4.64;100.00
10093;BME280;5085;48.092;11.484;2022-12-18T06:54:50;96334.53;;;-4.65;100.00
10093;BME280;5085;48.092;11.484;2022-12-18T06:57:16;96341.28;;;-4.62;100.00
10093;BME280;5085;48.092;11.484;2022-12-18T06:59:42;96332.06;;;-4.66;100.00
10093;BME280;5085;48.092;11.484;2022-12-18T07:02:11;96343.38;;;-4.66;100.00
10093;BME280;5085;48.092;11.484;2022-12-18T07:04:37;96349.44;;;-4.30;100.00
10093;BME280;5085;48.092;11.484;2022-12-18T07:07:03;96350.19;;;-4.19;100.00
10093;BME280;5085;48.092;11.484;2022-12-18T07:09:29;96351.19;;;-4.20;100.00
10093;BME280;5085;48.092;11.484;2022-12-18T07:11:55;96354.94;;;-4.23;100.00
10093;BME280;5085;48.092;11.484;2022-12-18T07:14:21;96357.72;;;-4.24;100.00
10093;BME280;5085;48.092;11.484;2022-12-18T07:16:47;96360.28;;;-4.33;100.00
10093;BME280;5085;48.092;11.484;2022-12-18T07:19:13;96364.31;;;-4.38;100.00
10093;BME280;5085;48.092;11.484;2022-12-18T07:21:39;96367.56;;;-4.44;100.00
10093;BME280;5085;48.092;11.484;2022-12-18T07:24:05;96374.75;;;-4.46;100.00
10093;BME280;5085;48.092;11.484;2022-12-18T07:26:31;96370.94;;;-4.52;100.00
10093;BME280;5085;48.092;11.484;2022-12-18T07:28:57;96373.84;;;-4.55;100.00
10093;BME280;5085;48.092;11.484;2022-12-18T07:31:24;96372.94;;;-4.64;100.00
10093;BME280;5085;48.092;11.484;2022-12-18T07:33:51;96375.38;;;-4.70;100.00
10093;BME280;5085;48.092;11.484;2022-12-18T07:36:18;96380.75;;;-4.72;100.00
10093;BME280;5085;48.092;11.484;2022-12-18T07:38:46;96375.50;;;-4.72;100.00
10093;BME280;5085;48.092;11.484;2022-12-18T07:41:13;96371.66;;;-4.78;100.00
10093;BME280;5085;48.092;11.484;2022-12-18T07:43:40;96359.22;;;-4.75;100.00
10093;BME280;5085;48.092;11.484;2022-12-18T07:46:07;96359.72;;;-4.72;100.00
10093;BME280;5085;48.092;11.484;2022-12-18T07:48:34;96357.97;;;-4.71;100.00
10093;BME280;5085;48.092;11.484;2022-12-18T07:51:00;96359.97;;;-4.65;100.00
10093;BME280;5085;48.092;11.484;2022-12-18T07:53:27;96365.75;;;-4.62;100.00
10093;BME280;5085;48.092;11.484;2022-12-18T07:55:57;96370.84;;;-4.60;100.00
10093;BME280;5085;48.092;11.484;2022-12-18T07:58:23;96363.66;;;-4.58;100.00
10093;BME280;5085;48.092;11.484;2022-12-18T08:00:49;96373.47;;;-4.60;100.00
10093;BME280;5085;48.092;11.484;2022-12-18T08:03:15;96380.91;;;-4.56;100.00
10093;BME280;5085;48.092;11.484;2022-12-18T08:05:41;96381.44;;;-4.52;100.00
10093;BME280;5085;48.092;11.484;2022-12-18T08:08:07;96391.50;;;-4.47;100.00
10093;BME280;5085;48.092;11.484;2022-12-18T08:10:33;96382.88;;;-4.40;100.00
10093;BME280;5085;48.092;11.484;2022-12-18T08:13:00;96399.84;;;-4.34;100.00
10093;BME280;5085;48.092;11.484;2022-12-18T08:15:26;96400.53;;;-4.32;100.00
10093;BME280;5085;48.092;11.484;2022-12-18T08:17:52;96401.50;;;-4.33;100.00
10093;BME280;5085;48.092;11.484;2022-12-18T08:20:18;96403.97;;;-4.32;100.00
10093;BME280;5085;48.092;11.484;2022-12-18T08:22:44;96411.69;;;-4.30;100.00
10093;BME280;5085;48.092;11.484;2022-12-18T08:25:10;96412.75;;;-4.23;100.00
10093;BME280;5085;48.092;11.484;2022-12-18T08:27:36;96407.34;;;-4.21;100.00
10093;BME280;5085;48.092;11.484;2022-12-18T08:30:03;96407.50;;;-4.23;100.00
10093;BME280;5085;48.092;11.484;2022-12-18T08:32:30;96398.63;;;-4.22;100.00
10093;BME280;5085;48.092;11.484;2022-12-18T08:34:56;96399.00;;;-4.17;100.00
10093;BME280;5085;48.092;11.484;2022-12-18T08:37:22;96398.19;;;-4.17;100.00
10093;BME280;5085;48.092;11.484;2022-12-18T08:39:48;96393.59;;;-4.15;100.00
10093;BME280;5085;48.092;11.484;2022-12-18T08:42:14;96402.31;;;-4.15;100.00
10093;BME280;5085;48.092;11.484;2022-12-18T08:44:58;96409.91;;;-4.12;100.00
10093;BME280;5085;48.092;11.484;2022-12-18T08:47:24;96410.56;;;-4.10;100.00
10093;BME280;5085;48.092;11.484;2022-12-18T08:49:51;96403.88;;;-4.04;100.00
10093;BME280;5085;48.092;11.484;2022-12-18T08:52:17;96407.28;;;-4.12;100.00
10093;BME280;5085;48.092;11.484;2022-12-18T08:54:44;96404.78;;;-4.13;100.00
10093;BME280;5085;48.092;11.484;2022-12-18T08:57:10;96408.56;;;-4.16;100.00
10093;BME280;5085;48.092;11.484;2022-12-18T08:59:36;96405.47;;;-4.11;100.00
10093;BME280;5085;48.092;11.484;2022-12-18T09:02:02;96416.81;;;-4.11;100.00
10093;BME280;5085;48.092;11.484;2022-12-18T09:04:28;96421.84;;;-4.17;100.00
10093;BME280;5085;48.092;11.484;2022-12-18T09:06:54;96423.94;;;-4.21;100.00
10093;BME280;5085;48.092;11.484;2022-12-18T09:09:20;96426.91;;;-4.24;100.00
10093;BME280;5085;48.092;11.484;2022-12-18T09:11:46;96418.84;;;-4.22;100.00
10093;BME280;5085;48.092;11.484;2022-12-18T09:14:12;96420.66;;;-4.23;100.00
10093;BME280;5085;48.092;11.484;2022-12-18T09:16:38;96420.28;;;-4.28;100.00
10093;BME280;5085;48.092;11.484;2022-12-18T09:19:05;96433.09;;;-4.25;100.00
10093;BME280;5085;48.092;11.484;2022-12-18T09:21:34;96422.66;;;-4.17;100.00
10093;BME280;5085;48.092;11.484;2022-12-18T09:24:04;96422.22;;;-4.12;100.00
10093;BME280;5085;48.092;11.484;2022-12-18T09:26:30;96413.56;;;-4.05;100.00
10093;BME280;5085;48.092;11.484;2022-12-18T09:28:56;96409.94;;;-4.04;100.00
10093;BME280;5085;48.092;11.484;2022-12-18T09:31:23;96414.25;;;-4.03;100.00
10093;BME280;5085;48.092;11.484;2022-12-18T09:33:50;96406.44;;;-3.94;100.00
10093;BME280;5085;48.092;11.484;2022-12-18T09:36:17;96408.97;;;-3.85;100.00
10093;BME280;5085;48.092;11.484;2022-12-18T09:38:44;96419.31;;;-3.83;100.00
10093;BME280;5085;48.092;11.484;2022-12-18T09:44:15;96407.63;;;-3.89;100.00
10093;BME280;5085;48.092;11.484;2022-12-18T09:49:36;96406.44;;;-3.68;100.00
10093;BME280;5085;48.092;11.484;2022-12-18T09:52:25;96409.28;;;-3.62;100.00
10093;BME280;5085;48.092;11.484;2022-12-18T09:55:11;96410.94;;;-3.61;100.00
10093;BME280;5085;48.092;11.484;2022-12-18T09:57:47;96404.53;;;-3.58;100.00
10093;BME280;5085;48.092;11.484;2022-12-18T10:00:18;96398.81;;;-3.54;100.00
10093;BME280;5085;48.092;11.484;2022-12-18T10:02:46;96394.56;;;-3.46;100.00
10093;BME280;5085;48.092;11.484;2022-12-18T10:05:16;96402.69;;;-3.40;100.00
10093;BME280;5085;48.092;11.484;2022-12-18T10:07:49;96405.66;;;-3.35;100.00
10093;BME280;5085;48.092;11.484;2022-12-18T10:10:38;96388.41;;;-3.29;100.00
10093;BME280;5085;48.092;11.484;2022-12-18T10:13:53;96390.88;;;-3.28;100.00
10093;BME280;5085;48.092;11.484;2022-12-18T10:21:44;96384.22;;;-3.48;100.00
10093;BME280;5085;48.092;11.484;2022-12-18T10:26:44;96379.72;;;-3.56;100.00
10093;BME280;5085;48.092;11.484;2022-12-18T10:29:12;96373.16;;;-3.52;100.00
10093;BME280;5085;48.092;11.484;2022-12-18T10:31:39;96361.84;;;-3.44;100.00
10093;BME280;5085;48.092;11.484;2022-12-18T10:34:14;96362.22;;;-3.39;100.00
10093;BME280;5085;48.092;11.484;2022-12-18T10:36:41;96357.94;;;-3.32;100.00
10093;BME280;5085;48.092;11.484;2022-12-18T10:39:16;96353.19;;;-3.28;100.00
10093;BME280;5085;48.092;11.484;2022-12-18T10:41:42;96355.22;;;-3.22;100.00
10093;BME280;5085;48.092;11.484;2022-12-18T10:44:16;96354.88;;;-3.19;100.00
10093;BME280;5085;48.092;11.484;2022-12-18T10:46:45;96356.19;;;-3.15;100.00
10093;BME280;5085;48.092;11.484;2022-12-18T10:49:26;96358.22;;;-3.09;100.00
10093;BME280;5085;48.092;11.484;2022-12-18T10:52:21;96355.28;;;-3.06;100.00
10093;BME280;5085;48.092;11.484;2022-12-18T10:54:57;96356.91;;;-3.05;100.00
10093;BME280;5085;48.092;11.484;2022-12-18T10:57:35;96356.25;;;-2.98;100.00
10093;BME280;5085;48.092;11.484;2022-12-18T11:00:28;96357.78;;;-2.88;100.00
10093;BME280;5085;48.092;11.484;2022-12-18T11:02:55;96364.56;;;-2.77;100.00
10093;BME280;5085;48.092;11.484;2022-12-18T11:05:32;96368.41;;;-2.63;100.00
10093;BME280;5085;48.092;11.484;2022-12-18T11:08:00;96368.38;;;-2.55;100.00
10093;BME280;5085;48.092;11.484;2022-12-18T11:10:36;96369.56;;;-2.58;100.00
10093;BME280;5085;48.092;11.484;2022-12-18T11:13:16;96375.81;;;-2.59;100.00
10093;BME280;5085;48.092;11.484;2022-12-18T11:15:43;96380.59;;;-2.62;100.00
10093;BME280;5085;48.092;11.484;2022-12-18T11:18:17;96384.34;;;-2.65;100.00
10093;BME280;5085;48.092;11.484;2022-12-18T11:20:50;96387.16;;;-2.66;100.00
10093;BME280;5085;48.092;11.484;2022-12-18T11:23:18;96383.72;;;-2.67;100.00
10093;BME280;5085;48.092;11.484;2022-12-18T11:25:52;96385.34;;;-2.66;100.00
10093;BME280;5085;48.092;11.484;2022-12-18T11:28:28;96369.03;;;-2.69;100.00
10093;BME280;5085;48.092;11.484;2022-12-18T11:31:37;96383.19;;;-2.79;100.00
10093;BME280;5085;48.092;11.484;2022-12-18T11:34:11;96372.44;;;-2.85;100.00
10093;BME280;5085;48.092;11.484;2022-12-18T11:36:45;96364.22;;;-2.82;100.00
10093;BME280;5085;48.092;11.484;2022-12-18T11:39:24;96373.25;;;-2.93;100.00
10093;BME280;5085;48.092;11.484;2022-12-18T11:41:58;96363.19;;;-2.97;100.00
10093;BME280;5085;48.092;11.484;2022-12-18T11:44:50;96359.88;;;-2.99;100.00
10093;BME280;5085;48.092;11.484;2022-12-18T11:50:18;96352.63;;;-2.97;100.00
10093;BME280;5085;48.092;11.484;2022-12-18T11:52:44;96353.66;;;-2.90;100.00
10093;BME280;5085;48.092;11.484;2022-12-18T11:55:13;96359.03;;;-2.41;100.00
10093;BME280;5085;48.092;11.484;2022-12-18T11:57:44;96356.25;;;-2.32;100.00
10093;BME280;5085;48.092;11.484;2022-12-18T12:00:13;96344.19;;;-2.34;100.00
10093;BME280;5085;48.092;11.484;2022-12-18T12:19:56;96350.03;;;-2.89;100.00
10093;BME280;5085;48.092;11.484;2022-12-18T12:27:49;96334.16;;;-3.14;100.00
10093;BME280;5085;48.092;11.484;2022-12-18T12:30:24;96334.47;;;-3.17;100.00
10093;BME280;5085;48.092;11.484;2022-12-18T12:38:19;96316.91;;;-3.00;100.00
10093;BME280;5085;48.092;11.484;2022-12-18T12:40:52;96321.88;;;-2.97;100.00
10093;BME280;5085;48.092;11.484;2022-12-18T12:50:47;96328.56;;;-3.11;100.00
10093;BME280;5085;48.092;11.484;2022-12-18T12:53:25;96333.69;;;-3.09;100.00
10093;BME280;5085;48.092;11.484;2022-12-18T12:55:52;96325.78;;;-3.09;100.00
10093;BME280;5085;48.092;11.484;2022-12-18T12:58:32;96330.56;;;-3.05;100.00
10093;BME280;5085;48.092;11.484;2022-12-18T13:07:11;96341.38;;;-3.16;100.00
10093;BME280;5085;48.092;11.484;2022-12-18T13:13:02;96325.41;;;-3.22;100.00
10093;BME280;5085;48.092;11.484;2022-12-18T13:15:43;96344.69;;;-3.22;100.00
10093;BME280;5085;48.092;11.484;2022-12-18T13:18:13;96348.13;;;-3.21;100.00
10093;BME280;5085;48.092;11.484;2022-12-18T13:20:44;96342.69;;;-3.20;100.00
10093;BME280;5085;48.092;11.484;2022-12-18T13:23:25;96351.28;;;-3.18;100.00
10093;BME280;5085;48.092;11.484;2022-12-18T13:26:00;96341.25;;;-3.14;100.00
10093;BME280;5085;48.092;11.484;2022-12-18T13:34:27;96339.59;;;-3.07;100.00
10093;BME280;5085;48.092;11.484;2022-12-18T13:36:56;96339.78;;;-3.09;100.00
10093;BME280;5085;48.092;11.484;2022-12-18T13:39:42;96333.81;;;-3.11;100.00
10093;BME280;5085;48.092;11.484;2022-12-18T13:44:41;96344.97;;;-3.25;100.00
10093;BME280;5085;48.092;11.484;2022-12-18T13:47:27;96341.50;;;-3.34;100.00
10093;BME280;5085;48.092;11.484;2022-12-18T13:49:56;96340.47;;;-3.41;100.00
10093;BME280;5085;48.092;11.484;2022-12-18T13:52:43;96330.88;;;-3.50;100.00
10093;BME280;5085;48.092;11.484;2022-12-18T13:55:18;96341.72;;;-3.53;100.00
10093;BME280;5085;48.092;11.484;2022-12-18T13:57:44;96339.25;;;-3.55;100.00
10093;BME280;5085;48.092;11.484;2022-12-18T14:00:42;96326.09;;;-3.55;100.00
10093;BME280;5085;48.092;11.484;2022-12-18T14:03:27;96322.13;;;-3.59;100.00
10093;BME280;5085;48.092;11.484;2022-12-18T14:06:01;96326.22;;;-3.64;100.00
10093;BME280;5085;48.092;11.484;2022-12-18T14:08:33;96338.84;;;-3.68;100.00
10093;BME280;5085;48.092;11.484;2022-12-18T14:11:02;96337.69;;;-3.73;100.00
10093;BME280;5085;48.092;11.484;2022-12-18T14:13:32;96340.63;;;-3.77;100.00
10093;BME280;5085;48.092;11.484;2022-12-18T14:16:04;96332.16;;;-3.88;100.00
10093;BME280;5085;48.092;11.484;2022-12-18T14:18:48;96337.56;;;-3.90;100.00
10093;BME280;5085;48.092;11.484;2022-12-18T14:21:23;96330.34;;;-3.88;100.00
10093;BME280;5085;48.092;11.484;2022-12-18T14:24:11;96338.09;;;-3.86;100.00
10093;BME280;5085;48.092;11.484;2022-12-18T14:26:37;96341.84;;;-3.89;100.00
10093;BME280;5085;48.092;11.484;2022-12-18T14:29:22;96338.53;;;-3.91;100.00
10093;BME280;5085;48.092;11.484;2022-12-18T14:32:09;96343.13;;;-3.93;100.00
10093;BME280;5085;48.092;11.484;2022-12-18T14:34:36;96348.56;;;-3.94;100.00
10093;BME280;5085;48.092;11.484;2022-12-18T14:37:02;96341.16;;;-3.99;100.00
10093;BME280;5085;48.092;11.484;2022-12-18T14:39:28;96336.19;;;-4.02;100.00
10093;BME280;5085;48.092;11.484;2022-12-18T14:41:54;96343.38;;;-4.04;100.00
10093;BME280;5085;48.092;11.484;2022-12-18T14:44:20;96338.91;;;-4.12;100.00
10093;BME280;5085;48.092;11.484;2022-12-18T14:46:49;96338.53;;;-4.17;100.00
10093;BME280;5085;48.092;11.484;2022-12-18T14:49:26;96337.69;;;-4.17;100.00
10093;BME280;5085;48.092;11.484;2022-12-18T14:51:56;96335.75;;;-4.15;100.00
10093;BME280;5085;48.092;11.484;2022-12-18T14:54:24;96342.50;;;-4.13;100.00